createdAt,value
2018-01-04T00:00:01.294Z,4.75
2018-01-04T00:00:05.427Z,4.75
2018-01-04T00:00:09.570Z,4.75
2018-01-04T00:00:13.708Z,4.75
2018-01-04T00:00:17.724Z,4.75
2018-01-04T00:00:22.035Z,4.75
2018-01-04T00:00:26.392Z,4.74
2018-01-04T00:00:30.511Z,4.75
2018-01-04T00:00:34.646Z,4.75
2018-01-04T00:00:38.875Z,4.75
2018-01-04T00:00:42.883Z,4.74
2018-01-04T00:00:46.819Z,4.74
2018-01-04T00:00:50.945Z,4.74
2018-01-04T00:00:55.094Z,4.74
2018-01-04T00:00:59.234Z,4.75
2018-01-04T00:01:03.590Z,4.74
2018-01-04T00:01:07.721Z,4.74
2018-01-04T00:01:11.852Z,4.73
2018-01-04T00:01:15.772Z,4.74
2018-01-04T00:01:20.088Z,4.74
2018-01-04T00:01:24.426Z,4.73
2018-01-04T00:01:28.644Z,4.74
2018-01-04T00:01:32.766Z,4.74
2018-01-04T00:01:36.782Z,4.73
2018-01-04T00:01:41.001Z,4.73
2018-01-04T00:01:45.021Z,4.72
2018-01-04T00:01:49.165Z,4.73
2018-01-04T00:01:53.421Z,4.72
2018-01-04T00:01:57.658Z,4.72
2018-01-04T00:02:01.780Z,4.72
2018-01-04T00:02:06.019Z,4.72
2018-01-04T00:02:10.127Z,4.71
2018-01-04T00:02:14.358Z,4.72
2018-01-04T00:02:18.467Z,4.72
2018-01-04T00:02:22.698Z,4.71
2018-01-04T00:02:26.754Z,4.72
2018-01-04T00:02:31.109Z,4.71
2018-01-04T00:02:35.130Z,4.71
2018-01-04T00:02:39.255Z,4.71
2018-01-04T00:02:43.368Z,4.71
2018-01-04T00:02:47.614Z,4.7
2018-01-04T00:02:51.615Z,4.71
2018-01-04T00:02:55.952Z,4.7
2018-01-04T00:03:00.173Z,4.69
2018-01-04T00:03:04.566Z,4.69
2018-01-04T00:03:08.696Z,4.69
2018-01-04T00:03:12.922Z,4.7
2018-01-04T00:03:16.737Z,4.68
2018-01-04T00:03:20.561Z,4.68
2018-01-04T00:03:24.833Z,4.69
2018-01-04T00:03:29.173Z,4.68
2018-01-04T00:03:33.416Z,4.68
2018-01-04T00:03:37.557Z,4.68
2018-01-04T00:03:41.792Z,4.67
2018-01-04T00:03:46.123Z,4.67
2018-01-04T00:03:50.252Z,4.67
2018-01-04T00:03:54.405Z,4.65
2018-01-04T00:03:58.535Z,4.67
2018-01-04T00:04:02.774Z,4.66
2018-01-04T00:04:07.121Z,4.65
2018-01-04T00:04:11.249Z,4.65
2018-01-04T00:04:15.273Z,4.66
2018-01-04T00:04:19.520Z,4.66
2018-01-04T00:04:23.743Z,4.65
2018-01-04T00:04:27.760Z,4.66
2018-01-04T00:04:32.009Z,4.66
2018-01-04T00:04:36.028Z,4.65
2018-01-04T00:04:40.146Z,4.65
2018-01-04T00:04:44.171Z,4.65
2018-01-04T00:04:48.294Z,4.65
2018-01-04T00:04:52.637Z,4.65
2018-01-04T00:04:56.563Z,4.65
2018-01-04T00:05:00.805Z,4.65
2018-01-04T00:05:05.295Z,4.66
2018-01-04T00:05:09.632Z,4.65
2018-01-04T00:05:13.854Z,4.64
2018-01-04T00:05:17.553Z,4.64
2018-01-04T00:05:21.793Z,4.64
2018-01-04T00:05:26.132Z,4.64
2018-01-04T00:05:30.470Z,4.64
2018-01-04T00:05:34.690Z,4.64
2018-01-04T00:05:39.084Z,4.64
2018-01-04T00:05:43.329Z,4.65
2018-01-04T00:05:47.562Z,4.63
2018-01-04T00:05:51.954Z,4.64
2018-01-04T00:05:56.184Z,4.64
2018-01-04T00:06:00.546Z,4.64
2018-01-04T00:06:04.921Z,4.64
2018-01-04T00:06:09.270Z,4.64
2018-01-04T00:06:13.308Z,4.64
2018-01-04T00:06:17.321Z,4.64
2018-01-04T00:06:21.353Z,4.63
2018-01-04T00:06:25.590Z,4.64
2018-01-04T00:06:29.713Z,4.63
2018-01-04T00:06:33.997Z,4.63
2018-01-04T00:06:38.238Z,4.63
2018-01-04T00:06:42.372Z,4.64
2018-01-04T00:06:46.284Z,4.63
2018-01-04T00:06:50.304Z,4.62
2018-01-04T00:06:54.534Z,4.63
2018-01-04T00:06:58.752Z,4.63
2018-01-04T00:07:02.884Z,4.63
2018-01-04T00:07:07.106Z,4.63
2018-01-04T00:07:11.336Z,4.63
2018-01-04T00:07:15.459Z,4.63
2018-01-04T00:07:19.801Z,4.62
2018-01-04T00:07:23.928Z,4.63
2018-01-04T00:07:28.055Z,4.62
2018-01-04T00:07:32.292Z,4.62
2018-01-04T00:07:36.307Z,4.62
2018-01-04T00:07:40.647Z,4.63
2018-01-04T00:07:44.991Z,4.62
2018-01-04T00:07:49.111Z,4.62
2018-01-04T00:07:53.145Z,4.62
2018-01-04T00:07:57.156Z,4.62
2018-01-04T00:08:01.390Z,4.62
2018-01-04T00:08:05.527Z,4.61
2018-01-04T00:08:09.872Z,4.62
2018-01-04T00:08:13.993Z,4.62
2018-01-04T00:08:18.113Z,4.61
2018-01-04T00:08:22.123Z,4.62
2018-01-04T00:08:26.438Z,4.61
2018-01-04T00:08:30.665Z,4.61
2018-01-04T00:08:34.700Z,4.61
2018-01-04T00:08:39.035Z,4.61
2018-01-04T00:08:43.375Z,4.61
2018-01-04T00:08:47.710Z,4.61
2018-01-04T00:08:51.968Z,4.61
2018-01-04T00:08:56.096Z,4.61
2018-01-04T00:09:00.318Z,4.61
2018-01-04T00:09:04.688Z,4.6
2018-01-04T00:09:09.035Z,4.61
2018-01-04T00:09:13.472Z,4.6
2018-01-04T00:09:17.497Z,4.61
2018-01-04T00:09:21.617Z,4.6
2018-01-04T00:09:25.648Z,4.59
2018-01-04T00:09:29.769Z,4.6
2018-01-04T00:09:33.908Z,4.6
2018-01-04T00:09:38.039Z,4.59
2018-01-04T00:09:42.061Z,4.59
2018-01-04T00:09:46.204Z,4.59
2018-01-04T00:09:50.224Z,4.59
2018-01-04T00:09:54.339Z,4.6
2018-01-04T00:09:58.566Z,4.59
2018-01-04T00:10:02.798Z,4.6
2018-01-04T00:10:07.019Z,4.58
2018-01-04T00:10:11.260Z,4.59
2018-01-04T00:10:15.286Z,4.58
2018-01-04T00:10:19.518Z,4.58
2018-01-04T00:10:24.045Z,4.59
2018-01-04T00:10:28.397Z,4.59
2018-01-04T00:10:32.625Z,4.58
2018-01-04T00:10:36.956Z,4.58
2018-01-04T00:10:41.307Z,4.59
2018-01-04T00:10:45.545Z,4.59
2018-01-04T00:10:49.667Z,4.58
2018-01-04T00:10:53.814Z,4.58
2018-01-04T00:10:58.053Z,4.58
2018-01-04T00:11:02.438Z,4.57
2018-01-04T00:11:06.760Z,4.58
2018-01-04T00:11:10.892Z,4.57
2018-01-04T00:11:14.906Z,4.57
2018-01-04T00:11:19.123Z,4.58
2018-01-04T00:11:23.133Z,4.57
2018-01-04T00:11:27.366Z,4.58
2018-01-04T00:11:31.717Z,4.57
2018-01-04T00:11:35.839Z,4.58
2018-01-04T00:11:39.857Z,4.57
2018-01-04T00:11:44.079Z,4.57
2018-01-04T00:11:48.306Z,4.58
2018-01-04T00:11:52.535Z,4.57
2018-01-04T00:11:56.670Z,4.58
2018-01-04T00:12:00.901Z,4.57
2018-01-04T00:12:04.919Z,4.57
2018-01-04T00:12:09.168Z,4.58
2018-01-04T00:12:13.511Z,4.57
2018-01-04T00:12:17.742Z,4.57
2018-01-04T00:12:22.076Z,4.57
2018-01-04T00:12:26.316Z,4.57
2018-01-04T00:12:30.549Z,4.57
2018-01-04T00:12:34.793Z,4.57
2018-01-04T00:12:39.149Z,4.57
2018-01-04T00:12:43.491Z,4.57
2018-01-04T00:12:47.840Z,4.57
2018-01-04T00:12:52.090Z,4.57
2018-01-04T00:12:56.220Z,4.58
2018-01-04T00:13:00.128Z,4.57
2018-01-04T00:13:04.355Z,4.57
2018-01-04T00:13:08.585Z,4.57
2018-01-04T00:13:12.611Z,4.57
2018-01-04T00:13:16.642Z,4.57
2018-01-04T00:13:20.872Z,4.56
2018-01-04T00:13:24.901Z,4.57
2018-01-04T00:13:29.249Z,4.57
2018-01-04T00:13:33.480Z,4.56
2018-01-04T00:13:37.609Z,4.56
2018-01-04T00:13:41.733Z,4.56
2018-01-04T00:13:45.878Z,4.56
2018-01-04T00:13:50.222Z,4.57
2018-01-04T00:13:54.463Z,4.57
2018-01-04T00:13:58.694Z,4.57
2018-01-04T00:14:03.319Z,4.57
2018-01-04T00:14:07.460Z,4.56
2018-01-04T00:14:11.386Z,4.57
2018-01-04T00:14:15.400Z,4.56
2018-01-04T00:14:19.689Z,4.57
2018-01-04T00:14:23.908Z,4.57
2018-01-04T00:14:28.140Z,4.57
2018-01-04T00:14:32.458Z,4.57
2018-01-04T00:14:36.788Z,4.57
2018-01-04T00:14:40.907Z,4.57
2018-01-04T00:14:45.036Z,4.58
2018-01-04T00:14:49.271Z,4.57
2018-01-04T00:14:53.400Z,4.57
2018-01-04T00:14:57.630Z,4.57
2018-01-04T00:15:01.445Z,4.57
2018-01-04T00:15:05.782Z,4.57
2018-01-04T00:15:10.020Z,4.57
2018-01-04T00:15:14.250Z,4.57
2018-01-04T00:15:18.373Z,4.57
2018-01-04T00:15:22.514Z,4.57
2018-01-04T00:15:26.635Z,4.57
2018-01-04T00:15:30.652Z,4.57
2018-01-04T00:15:34.865Z,4.57
2018-01-04T00:15:39.277Z,4.57
2018-01-04T00:15:43.409Z,4.57
2018-01-04T00:15:47.746Z,4.58
2018-01-04T00:15:51.972Z,4.58
2018-01-04T00:15:56.302Z,4.58
2018-01-04T00:16:00.326Z,4.58
2018-01-04T00:16:04.446Z,4.58
2018-01-04T00:16:08.468Z,4.58
2018-01-04T00:16:12.485Z,4.59
2018-01-04T00:16:16.708Z,4.58
2018-01-04T00:16:20.829Z,4.59
2018-01-04T00:16:24.948Z,4.58
2018-01-04T00:16:29.179Z,4.59
2018-01-04T00:16:33.519Z,4.59
2018-01-04T00:16:37.748Z,4.59
2018-01-04T00:16:41.773Z,4.59
2018-01-04T00:16:46.061Z,4.59
2018-01-04T00:16:50.103Z,4.58
2018-01-04T00:16:54.233Z,4.59
2018-01-04T00:16:58.456Z,4.59
2018-01-04T00:17:02.634Z,4.59
2018-01-04T00:17:06.773Z,4.59
2018-01-04T00:17:10.815Z,4.58
2018-01-04T00:17:14.942Z,4.59
2018-01-04T00:17:19.269Z,4.59
2018-01-04T00:17:23.511Z,4.59
2018-01-04T00:17:27.813Z,4.59
2018-01-04T00:17:32.161Z,4.59
2018-01-04T00:17:36.211Z,4.59
2018-01-04T00:17:40.305Z,4.59
2018-01-04T00:17:44.628Z,4.6
2018-01-04T00:17:48.852Z,4.59
2018-01-04T00:17:53.086Z,4.59
2018-01-04T00:17:57.421Z,4.59
2018-01-04T00:18:01.755Z,4.59
2018-01-04T00:18:06.256Z,4.59
2018-01-04T00:18:10.591Z,4.6
2018-01-04T00:18:14.725Z,4.6
2018-01-04T00:18:18.847Z,4.59
2018-01-04T00:18:23.185Z,4.59
2018-01-04T00:18:27.326Z,4.59
2018-01-04T00:18:31.555Z,4.59
2018-01-04T00:18:35.890Z,4.6
2018-01-04T00:18:39.959Z,4.59
2018-01-04T00:18:44.024Z,4.59
2018-01-04T00:18:48.273Z,4.6
2018-01-04T00:18:52.535Z,4.59
2018-01-04T00:18:56.666Z,4.6
2018-01-04T00:19:00.887Z,4.6
2018-01-04T00:19:05.017Z,4.6
2018-01-04T00:19:09.356Z,4.59
2018-01-04T00:19:13.490Z,4.59
2018-01-04T00:19:17.418Z,4.59
2018-01-04T00:19:21.540Z,4.58
2018-01-04T00:19:25.569Z,4.59
2018-01-04T00:19:29.683Z,4.6
2018-01-04T00:19:33.922Z,4.6
2018-01-04T00:19:38.158Z,4.59
2018-01-04T00:19:42.406Z,4.59
2018-01-04T00:19:46.650Z,4.59
2018-01-04T00:19:50.978Z,4.58
2018-01-04T00:19:55.214Z,4.6
2018-01-04T00:19:59.259Z,4.58
2018-01-04T00:20:03.493Z,4.59
2018-01-04T00:20:07.513Z,4.6
2018-01-04T00:20:11.656Z,4.6
2018-01-04T00:20:15.777Z,4.59
2018-01-04T00:20:19.915Z,4.6
2018-01-04T00:20:24.156Z,4.59
2018-01-04T00:20:28.391Z,4.6
2018-01-04T00:20:32.638Z,4.59
2018-01-04T00:20:36.668Z,4.59
2018-01-04T00:20:40.924Z,4.6
2018-01-04T00:20:45.256Z,4.6
2018-01-04T00:20:49.486Z,4.6
2018-01-04T00:20:53.602Z,4.6
2018-01-04T00:20:57.614Z,4.6
2018-01-04T00:21:01.725Z,4.6
2018-01-04T00:21:05.893Z,4.61
2018-01-04T00:21:10.005Z,4.6
2018-01-04T00:21:14.342Z,4.6
2018-01-04T00:21:18.371Z,4.6
2018-01-04T00:21:22.505Z,4.6
2018-01-04T00:21:26.643Z,4.61
2018-01-04T00:21:30.762Z,4.6
2018-01-04T00:21:34.883Z,4.61
2018-01-04T00:21:38.890Z,4.61
2018-01-04T00:21:43.127Z,4.61
2018-01-04T00:21:47.474Z,4.62
2018-01-04T00:21:51.601Z,4.61
2018-01-04T00:21:55.828Z,4.61
2018-01-04T00:22:00.068Z,4.61
2018-01-04T00:22:04.305Z,4.61
2018-01-04T00:22:08.313Z,4.62
2018-01-04T00:22:12.553Z,4.62
2018-01-04T00:22:16.775Z,4.62
2018-01-04T00:22:21.050Z,4.62
2018-01-04T00:22:25.287Z,4.62
2018-01-04T00:22:29.554Z,4.62
2018-01-04T00:22:33.789Z,4.62
2018-01-04T00:22:38.011Z,4.62
2018-01-04T00:22:42.256Z,4.63
2018-01-04T00:22:46.479Z,4.63
2018-01-04T00:22:50.825Z,4.63
2018-01-04T00:22:55.175Z,4.63
2018-01-04T00:22:59.496Z,4.63
2018-01-04T00:23:04.033Z,4.62
2018-01-04T00:23:08.279Z,4.63
2018-01-04T00:23:12.314Z,4.63
2018-01-04T00:23:16.549Z,4.63
2018-01-04T00:23:20.886Z,4.63
2018-01-04T00:23:25.230Z,4.63
2018-01-04T00:23:29.576Z,4.63
2018-01-04T00:23:33.907Z,4.64
2018-01-04T00:23:38.140Z,4.63
2018-01-04T00:23:42.380Z,4.64
2018-01-04T00:23:46.491Z,4.64
2018-01-04T00:23:50.497Z,4.65
2018-01-04T00:23:54.832Z,4.63
2018-01-04T00:23:59.160Z,4.64
2018-01-04T00:24:03.541Z,4.64
2018-01-04T00:24:07.577Z,4.64
2018-01-04T00:24:11.592Z,4.64
2018-01-04T00:24:15.721Z,4.64
2018-01-04T00:24:19.828Z,4.65
2018-01-04T00:24:23.943Z,4.64
2018-01-04T00:24:28.175Z,4.64
2018-01-04T00:24:32.464Z,4.64
2018-01-04T00:24:36.494Z,4.65
2018-01-04T00:24:40.714Z,4.65
2018-01-04T00:24:45.066Z,4.65
2018-01-04T00:24:49.413Z,4.65
2018-01-04T00:24:53.646Z,4.64
2018-01-04T00:24:57.874Z,4.65
2018-01-04T00:25:02.468Z,4.64
2018-01-04T00:25:06.600Z,4.65
2018-01-04T00:25:10.836Z,4.64
2018-01-04T00:25:15.186Z,4.64
2018-01-04T00:25:19.198Z,4.64
2018-01-04T00:25:23.320Z,4.65
2018-01-04T00:25:27.710Z,4.65
2018-01-04T00:25:32.052Z,4.65
2018-01-04T00:25:36.174Z,4.65
2018-01-04T00:25:40.405Z,4.65
2018-01-04T00:25:44.638Z,4.64
2018-01-04T00:25:48.871Z,4.64
2018-01-04T00:25:53.008Z,4.64
2018-01-04T00:25:57.241Z,4.65
2018-01-04T00:26:01.042Z,4.65
2018-01-04T00:26:05.156Z,4.63
2018-01-04T00:26:09.384Z,4.64
2018-01-04T00:26:13.301Z,4.65
2018-01-04T00:26:17.435Z,4.64
2018-01-04T00:26:21.754Z,4.64
2018-01-04T00:26:25.977Z,4.64
2018-01-04T00:26:30.120Z,4.65
2018-01-04T00:26:34.347Z,4.64
2018-01-04T00:26:38.584Z,4.64
2018-01-04T00:26:42.928Z,4.64
2018-01-04T00:26:47.115Z,4.64
2018-01-04T00:26:51.344Z,4.65
2018-01-04T00:26:55.661Z,4.65
2018-01-04T00:26:59.892Z,4.64
2018-01-04T00:27:04.532Z,4.64
2018-01-04T00:27:08.773Z,4.64
2018-01-04T00:27:12.687Z,4.64
2018-01-04T00:27:16.830Z,4.63
2018-01-04T00:27:21.173Z,4.64
2018-01-04T00:27:25.416Z,4.63
2018-01-04T00:27:29.762Z,4.64
2018-01-04T00:27:34.005Z,4.64
2018-01-04T00:27:38.134Z,4.64
2018-01-04T00:27:42.270Z,4.63
2018-01-04T00:27:46.611Z,4.63
2018-01-04T00:27:50.757Z,4.63
2018-01-04T00:27:54.984Z,4.63
2018-01-04T00:27:59.201Z,4.63
2018-01-04T00:28:03.333Z,4.63
2018-01-04T00:28:07.352Z,4.62
2018-01-04T00:28:11.362Z,4.63
2018-01-04T00:28:15.603Z,4.63
2018-01-04T00:28:19.407Z,4.63
2018-01-04T00:28:23.328Z,4.63
2018-01-04T00:28:27.683Z,4.63
2018-01-04T00:28:31.907Z,4.62
2018-01-04T00:28:36.246Z,4.63
2018-01-04T00:28:40.483Z,4.62
2018-01-04T00:28:44.616Z,4.62
2018-01-04T00:28:48.850Z,4.62
2018-01-04T00:28:53.076Z,4.63
2018-01-04T00:28:57.311Z,4.62
2018-01-04T00:29:01.835Z,4.62
2018-01-04T00:29:06.067Z,4.62
2018-01-04T00:29:10.198Z,4.62
2018-01-04T00:29:14.324Z,4.62
2018-01-04T00:29:18.484Z,4.61
2018-01-04T00:29:22.604Z,4.61
2018-01-04T00:29:26.414Z,4.61
2018-01-04T00:29:30.630Z,4.62
2018-01-04T00:29:34.734Z,4.62
2018-01-04T00:29:39.012Z,4.62
2018-01-04T00:29:43.129Z,4.61
2018-01-04T00:29:47.270Z,4.62
2018-01-04T00:29:51.497Z,4.61
2018-01-04T00:29:55.734Z,4.62
2018-01-04T00:29:59.880Z,4.63
2018-01-04T00:30:04.027Z,4.62
2018-01-04T00:30:08.181Z,4.62
2018-01-04T00:30:12.307Z,4.61
2018-01-04T00:30:16.548Z,4.61
2018-01-04T00:30:20.776Z,4.61
2018-01-04T00:30:24.913Z,4.61
2018-01-04T00:30:29.147Z,4.62
2018-01-04T00:30:33.370Z,4.61
2018-01-04T00:30:37.726Z,4.62
2018-01-04T00:30:41.944Z,4.62
2018-01-04T00:30:46.073Z,4.62
2018-01-04T00:30:50.424Z,4.61
2018-01-04T00:30:54.774Z,4.62
2018-01-04T00:30:59.117Z,4.61
2018-01-04T00:31:03.353Z,4.61
2018-01-04T00:31:07.598Z,4.62
2018-01-04T00:31:11.722Z,4.62
2018-01-04T00:31:15.843Z,4.62
2018-01-04T00:31:20.078Z,4.62
2018-01-04T00:31:24.245Z,4.61
2018-01-04T00:31:28.395Z,4.62
2018-01-04T00:31:32.637Z,4.62
2018-01-04T00:31:36.773Z,4.63
2018-01-04T00:31:41.029Z,4.62
2018-01-04T00:31:45.157Z,4.62
2018-01-04T00:31:49.497Z,4.62
2018-01-04T00:31:53.824Z,4.63
2018-01-04T00:31:58.055Z,4.62
2018-01-04T00:32:02.441Z,4.63
2018-01-04T00:32:06.470Z,4.61
2018-01-04T00:32:10.720Z,4.62
2018-01-04T00:32:14.941Z,4.62
2018-01-04T00:32:18.950Z,4.62
2018-01-04T00:32:22.965Z,4.62
2018-01-04T00:32:27.183Z,4.63
2018-01-04T00:32:31.462Z,4.62
2018-01-04T00:32:35.689Z,4.63
2018-01-04T00:32:39.815Z,4.62
2018-01-04T00:32:44.150Z,4.62
2018-01-04T00:32:48.501Z,4.62
2018-01-04T00:32:52.620Z,4.62
2018-01-04T00:32:56.750Z,4.62
2018-01-04T00:33:00.981Z,4.62
2018-01-04T00:33:05.519Z,4.62
2018-01-04T00:33:09.655Z,4.62
2018-01-04T00:33:13.794Z,4.62
2018-01-04T00:33:18.123Z,4.62
2018-01-04T00:33:22.348Z,4.62
2018-01-04T00:33:26.569Z,4.62
2018-01-04T00:33:30.692Z,4.62
2018-01-04T00:33:34.819Z,4.62
2018-01-04T00:33:39.047Z,4.61
2018-01-04T00:33:43.184Z,4.62
2018-01-04T00:33:47.307Z,4.62
2018-01-04T00:33:51.601Z,4.61
2018-01-04T00:33:55.830Z,4.62
2018-01-04T00:33:59.958Z,4.61
2018-01-04T00:34:04.310Z,4.62
2018-01-04T00:34:08.559Z,4.61
2018-01-04T00:34:12.698Z,4.61
2018-01-04T00:34:16.815Z,4.61
2018-01-04T00:34:20.935Z,4.61
2018-01-04T00:34:24.959Z,4.61
2018-01-04T00:34:29.188Z,4.61
2018-01-04T00:34:33.336Z,4.61
2018-01-04T00:34:37.363Z,4.6
2018-01-04T00:34:41.483Z,4.6
2018-01-04T00:34:45.495Z,4.6
2018-01-04T00:34:49.726Z,4.61
2018-01-04T00:34:54.058Z,4.61
2018-01-04T00:34:58.196Z,4.6
2018-01-04T00:35:02.429Z,4.61
2018-01-04T00:35:06.662Z,4.6
2018-01-04T00:35:10.781Z,4.6
2018-01-04T00:35:14.890Z,4.6
2018-01-04T00:35:19.177Z,4.6
2018-01-04T00:35:23.203Z,4.6
2018-01-04T00:35:27.457Z,4.59
2018-01-04T00:35:31.708Z,4.6
2018-01-04T00:35:35.945Z,4.6
2018-01-04T00:35:39.966Z,4.6
2018-01-04T00:35:44.110Z,4.59
2018-01-04T00:35:48.456Z,4.59
2018-01-04T00:35:52.792Z,4.6
2018-01-04T00:35:56.932Z,4.6
2018-01-04T00:36:01.063Z,4.6
2018-01-04T00:36:05.612Z,4.6
2018-01-04T00:36:09.839Z,4.6
2018-01-04T00:36:13.752Z,4.59
2018-01-04T00:36:17.674Z,4.59
2018-01-04T00:36:21.702Z,4.59
2018-01-04T00:36:25.830Z,4.6
2018-01-04T00:36:30.163Z,4.59
2018-01-04T00:36:34.494Z,4.58
2018-01-04T00:36:38.723Z,4.59
2018-01-04T00:36:43.061Z,4.59
2018-01-04T00:36:47.399Z,4.6
2018-01-04T00:36:51.534Z,4.6
2018-01-04T00:36:55.799Z,4.6
2018-01-04T00:37:00.132Z,4.59
2018-01-04T00:37:04.647Z,4.59
2018-01-04T00:37:08.764Z,4.59
2018-01-04T00:37:13.109Z,4.59
2018-01-04T00:37:17.343Z,4.59
2018-01-04T00:37:21.571Z,4.59
2018-01-04T00:37:25.922Z,4.59
2018-01-04T00:37:30.267Z,4.59
2018-01-04T00:37:34.270Z,4.59
2018-01-04T00:37:38.603Z,4.58
2018-01-04T00:37:42.829Z,4.59
2018-01-04T00:37:47.040Z,4.59
2018-01-04T00:37:51.286Z,4.59
2018-01-04T00:37:55.520Z,4.59
2018-01-04T00:37:59.749Z,4.59
2018-01-04T00:38:04.222Z,4.59
2018-01-04T00:38:08.563Z,4.59
2018-01-04T00:38:12.912Z,4.59
2018-01-04T00:38:16.854Z,4.58
2018-01-04T00:38:20.985Z,4.58
2018-01-04T00:38:25.011Z,4.58
2018-01-04T00:38:29.240Z,4.59
2018-01-04T00:38:33.378Z,4.58
2018-01-04T00:38:37.603Z,4.59
2018-01-04T00:38:41.826Z,4.59
2018-01-04T00:38:46.060Z,4.58
2018-01-04T00:38:50.187Z,4.58
2018-01-04T00:38:54.530Z,4.58
2018-01-04T00:38:58.759Z,4.59
2018-01-04T00:39:03.286Z,4.58
2018-01-04T00:39:07.430Z,4.58
2018-01-04T00:39:11.679Z,4.58
2018-01-04T00:39:15.693Z,4.58
2018-01-04T00:39:19.818Z,4.59
2018-01-04T00:39:24.032Z,4.58
2018-01-04T00:39:28.168Z,4.58
2018-01-04T00:39:32.316Z,4.58
2018-01-04T00:39:36.565Z,4.58
2018-01-04T00:39:40.695Z,4.58
2018-01-04T00:39:45.025Z,4.58
2018-01-04T00:39:49.265Z,4.58
2018-01-04T00:39:53.498Z,4.59
2018-01-04T00:39:57.624Z,4.58
2018-01-04T00:40:02.114Z,4.58
2018-01-04T00:40:06.252Z,4.59
2018-01-04T00:40:10.372Z,4.58
2018-01-04T00:40:14.623Z,4.59
2018-01-04T00:40:18.558Z,4.59
2018-01-04T00:40:22.889Z,4.57
2018-01-04T00:40:27.423Z,4.59
2018-01-04T00:40:31.673Z,4.57
2018-01-04T00:40:35.891Z,4.59
2018-01-04T00:40:40.026Z,4.58
2018-01-04T00:40:44.279Z,4.58
2018-01-04T00:40:48.632Z,4.58
2018-01-04T00:40:52.883Z,4.58
2018-01-04T00:40:56.919Z,4.59
2018-01-04T00:41:01.139Z,4.59
2018-01-04T00:41:05.716Z,4.59
2018-01-04T00:41:10.107Z,4.59
2018-01-04T00:41:14.344Z,4.58
2018-01-04T00:41:18.566Z,4.59
2018-01-04T00:41:22.781Z,4.58
2018-01-04T00:41:27.114Z,4.58
2018-01-04T00:41:31.247Z,4.59
2018-01-04T00:41:35.395Z,4.58
2018-01-04T00:41:39.315Z,4.59
2018-01-04T00:41:43.655Z,4.58
2018-01-04T00:41:47.876Z,4.58
2018-01-04T00:41:52.137Z,4.57
2018-01-04T00:41:56.378Z,4.58
2018-01-04T00:42:00.512Z,4.59
2018-01-04T00:42:04.635Z,4.59
2018-01-04T00:42:08.651Z,4.59
2018-01-04T00:42:12.930Z,4.58
2018-01-04T00:42:16.802Z,4.59
2018-01-04T00:42:21.130Z,4.59
2018-01-04T00:42:25.469Z,4.57
2018-01-04T00:42:29.698Z,4.58
2018-01-04T00:42:33.720Z,4.59
2018-01-04T00:42:37.863Z,4.58
2018-01-04T00:42:41.984Z,4.58
2018-01-04T00:42:46.007Z,4.57
2018-01-04T00:42:50.238Z,4.59
2018-01-04T00:42:54.378Z,4.58
2018-01-04T00:42:58.616Z,4.58
2018-01-04T00:43:02.756Z,4.59
2018-01-04T00:43:07.106Z,4.58
2018-01-04T00:43:11.437Z,4.58
2018-01-04T00:43:15.560Z,4.57
2018-01-04T00:43:19.918Z,4.58
2018-01-04T00:43:24.139Z,4.57
2018-01-04T00:43:28.368Z,4.57
2018-01-04T00:43:32.611Z,4.58
2018-01-04T00:43:36.892Z,4.58
2018-01-04T00:43:41.115Z,4.58
2018-01-04T00:43:45.354Z,4.57
2018-01-04T00:43:49.689Z,4.58
2018-01-04T00:43:54.017Z,4.57
2018-01-04T00:43:58.343Z,4.56
2018-01-04T00:44:02.682Z,4.58
2018-01-04T00:44:06.965Z,4.58
2018-01-04T00:44:10.885Z,4.58
2018-01-04T00:44:15.034Z,4.58
2018-01-04T00:44:19.160Z,4.57
2018-01-04T00:44:23.290Z,4.58
2018-01-04T00:44:27.211Z,4.58
2018-01-04T00:44:31.558Z,4.57
2018-01-04T00:44:35.562Z,4.58
2018-01-04T00:44:39.894Z,4.57
2018-01-04T00:44:44.125Z,4.58
2018-01-04T00:44:48.372Z,4.58
2018-01-04T00:44:52.724Z,4.57
2018-01-04T00:44:56.962Z,4.57
2018-01-04T00:45:01.073Z,4.57
2018-01-04T00:45:05.420Z,4.57
2018-01-04T00:45:09.609Z,4.57
2018-01-04T00:45:13.852Z,4.57
2018-01-04T00:45:17.985Z,4.57
2018-01-04T00:45:22.315Z,4.58
2018-01-04T00:45:26.544Z,4.58
2018-01-04T00:45:30.555Z,4.57
2018-01-04T00:45:34.566Z,4.57
2018-01-04T00:45:38.678Z,4.56
2018-01-04T00:45:42.610Z,4.57
2018-01-04T00:45:46.875Z,4.56
2018-01-04T00:45:51.214Z,4.57
2018-01-04T00:45:55.558Z,4.57
2018-01-04T00:45:59.799Z,4.57
2018-01-04T00:46:04.215Z,4.57
2018-01-04T00:46:08.456Z,4.57
2018-01-04T00:46:12.818Z,4.57
2018-01-04T00:46:17.045Z,4.56
2018-01-04T00:46:21.065Z,4.57
2018-01-04T00:46:25.407Z,4.56
2018-01-04T00:46:29.537Z,4.56
2018-01-04T00:46:33.878Z,4.56
2018-01-04T00:46:38.009Z,4.57
2018-01-04T00:46:42.030Z,4.56
2018-01-04T00:46:46.048Z,4.57
2018-01-04T00:46:50.387Z,4.57
2018-01-04T00:46:54.619Z,4.56
2018-01-04T00:46:58.965Z,4.57
2018-01-04T00:47:03.450Z,4.57
2018-01-04T00:47:07.572Z,4.57
2018-01-04T00:47:11.872Z,4.56
2018-01-04T00:47:15.887Z,4.57
2018-01-04T00:47:20.108Z,4.56
2018-01-04T00:47:24.226Z,4.57
2018-01-04T00:47:28.352Z,4.56
2018-01-04T00:47:32.482Z,4.56
2018-01-04T00:47:36.819Z,4.56
2018-01-04T00:47:40.944Z,4.57
2018-01-04T00:47:45.167Z,4.57
2018-01-04T00:47:49.507Z,4.57
2018-01-04T00:47:53.641Z,4.56
2018-01-04T00:47:57.880Z,4.56
2018-01-04T00:48:02.174Z,4.55
2018-01-04T00:48:06.305Z,4.56
2018-01-04T00:48:10.643Z,4.56
2018-01-04T00:48:14.769Z,4.56
2018-01-04T00:48:18.992Z,4.55
2018-01-04T00:48:23.013Z,4.56
2018-01-04T00:48:27.135Z,4.56
2018-01-04T00:48:31.470Z,4.56
2018-01-04T00:48:35.697Z,4.55
2018-01-04T00:48:39.823Z,4.55
2018-01-04T00:48:44.045Z,4.56
2018-01-04T00:48:48.260Z,4.55
2018-01-04T00:48:52.485Z,4.56
2018-01-04T00:48:56.619Z,4.56
2018-01-04T00:49:00.735Z,4.56
2018-01-04T00:49:05.027Z,4.55
2018-01-04T00:49:09.175Z,4.55
2018-01-04T00:49:13.404Z,4.55
2018-01-04T00:49:17.630Z,4.55
2018-01-04T00:49:21.973Z,4.55
2018-01-04T00:49:26.103Z,4.55
2018-01-04T00:49:30.336Z,4.56
2018-01-04T00:49:34.557Z,4.55
2018-01-04T00:49:38.788Z,4.54
2018-01-04T00:49:42.915Z,4.55
2018-01-04T00:49:47.153Z,4.55
2018-01-04T00:49:51.277Z,4.55
2018-01-04T00:49:55.620Z,4.55
2018-01-04T00:49:59.844Z,4.54
2018-01-04T00:50:04.077Z,4.56
2018-01-04T00:50:08.316Z,4.55
2018-01-04T00:50:12.665Z,4.55
2018-01-04T00:50:16.680Z,4.55
2018-01-04T00:50:20.904Z,4.55
2018-01-04T00:50:25.239Z,4.54
2018-01-04T00:50:29.418Z,4.55
2018-01-04T00:50:33.766Z,4.54
2018-01-04T00:50:37.997Z,4.54
2018-01-04T00:50:42.334Z,4.54
2018-01-04T00:50:46.347Z,4.55
2018-01-04T00:50:50.142Z,4.55
2018-01-04T00:50:54.375Z,4.54
2018-01-04T00:50:58.513Z,4.54
2018-01-04T00:51:02.649Z,4.55
2018-01-04T00:51:07.000Z,4.53
2018-01-04T00:51:11.230Z,4.54
2018-01-04T00:51:15.270Z,4.54
2018-01-04T00:51:19.525Z,4.54
2018-01-04T00:51:23.758Z,4.53
2018-01-04T00:51:27.976Z,4.54
2018-01-04T00:51:32.318Z,4.54
2018-01-04T00:51:36.552Z,4.53
2018-01-04T00:51:40.695Z,4.54
2018-01-04T00:51:44.933Z,4.53
2018-01-04T00:51:49.062Z,4.54
2018-01-04T00:51:53.199Z,4.53
2018-01-04T00:51:57.448Z,4.53
2018-01-04T00:52:01.782Z,4.55
2018-01-04T00:52:05.977Z,4.53
2018-01-04T00:52:10.111Z,4.53
2018-01-04T00:52:14.238Z,4.53
2018-01-04T00:52:18.357Z,4.53
2018-01-04T00:52:22.483Z,4.53
2018-01-04T00:52:26.711Z,4.53
2018-01-04T00:52:30.841Z,4.53
2018-01-04T00:52:35.072Z,4.52
2018-01-04T00:52:39.202Z,4.52
2018-01-04T00:52:43.527Z,4.53
2018-01-04T00:52:47.736Z,4.52
2018-01-04T00:52:51.958Z,4.53
2018-01-04T00:52:55.984Z,4.53
2018-01-04T00:53:00.222Z,4.53
2018-01-04T00:53:04.863Z,4.54
2018-01-04T00:53:08.976Z,4.53
2018-01-04T00:53:13.204Z,4.53
2018-01-04T00:53:17.223Z,4.53
2018-01-04T00:53:21.138Z,4.53
2018-01-04T00:53:25.365Z,4.53
2018-01-04T00:53:29.717Z,4.53
2018-01-04T00:53:34.117Z,4.54
2018-01-04T00:53:38.353Z,4.54
2018-01-04T00:53:42.372Z,4.54
2018-01-04T00:53:46.592Z,4.54
2018-01-04T00:53:50.708Z,4.54
2018-01-04T00:53:54.953Z,4.55
2018-01-04T00:53:59.086Z,4.55
2018-01-04T00:54:03.426Z,4.54
2018-01-04T00:54:07.774Z,4.54
2018-01-04T00:54:12.002Z,4.55
2018-01-04T00:54:16.333Z,4.55
2018-01-04T00:54:20.459Z,4.55
2018-01-04T00:54:24.368Z,4.55
2018-01-04T00:54:28.505Z,4.55
2018-01-04T00:54:32.538Z,4.56
2018-01-04T00:54:36.566Z,4.57
2018-01-04T00:54:40.808Z,4.56
2018-01-04T00:54:45.143Z,4.56
2018-01-04T00:54:49.363Z,4.56
2018-01-04T00:54:53.381Z,4.57
2018-01-04T00:54:57.507Z,4.56
2018-01-04T00:55:01.751Z,4.57
2018-01-04T00:55:06.231Z,4.57
2018-01-04T00:55:10.267Z,4.57
2018-01-04T00:55:14.284Z,4.57
2018-01-04T00:55:18.560Z,4.58
2018-01-04T00:55:22.690Z,4.57
2018-01-04T00:55:27.037Z,4.57
2018-01-04T00:55:31.273Z,4.57
2018-01-04T00:55:35.550Z,4.57
2018-01-04T00:55:39.561Z,4.57
2018-01-04T00:55:43.787Z,4.58
2018-01-04T00:55:48.042Z,4.58
2018-01-04T00:55:52.068Z,4.59
2018-01-04T00:55:56.184Z,4.58
2018-01-04T00:56:00.504Z,4.59